sensor_id;sensor_type;location;lat;lon;timestamp;pressure;altitude;pressure_sealevel;temperature;humidity
71476;BME280;59286;59.274;17.974;2023-12-14T00:01:27;101157.69;;;-5.15;96.52
71476;BME280;59286;59.274;17.974;2023-12-14T00:03:52;101139.09;;;-5.24;96.86
71476;BME280;59286;59.274;17.974;2023-12-14T00:06:17;101118.88;;;-5.40;97.24
71476;BME280;59286;59.274;17.974;2023-12-14T00:08:43;101136.81;;;-5.33;96.82
71476;BME280;59286;59.274;17.974;2023-12-14T00:11:10;101134.97;;;-5.39;96.82
71476;BME280;59286;59.274;17.974;2023-12-14T00:13:36;101169.13;;;-5.11;95.22
71476;BME280;59286;59.274;17.974;2023-12-14T00:16:02;101182.41;;;-5.01;96.46
71476;BME280;59286;59.274;17.974;2023-12-14T00:18:28;101177.56;;;-5.11;95.86
71476;BME280;59286;59.274;17.974;2023-12-14T00:20:53;101113.06;;;-5.48;96.90
71476;BME280;59286;59.274;17.974;2023-12-14T00:23:19;101165.41;;;-5.09;95.75
71476;BME280;59286;59.274;17.974;2023-12-14T00:25:45;101110.50;;;-5.48;95.69
71476;BME280;59286;59.274;17.974;2023-12-14T00:28:10;101146.88;;;-5.32;96.22
71476;BME280;59286;59.274;17.974;2023-12-14T00:30:36;101099.75;;;-5.58;96.69
71476;BME280;59286;59.274;17.974;2023-12-14T00:33:01;101110.16;;;-5.45;96.49
71476;BME280;59286;59.274;17.974;2023-12-14T00:35:27;101123.16;;;-5.40;97.48
71476;BME280;59286;59.274;17.974;2023-12-14T00:37:52;101128.38;;;-5.34;97.44
71476;BME280;59286;59.274;17.974;2023-12-14T00:40:18;101120.16;;;-5.29;96.22
71476;BME280;59286;59.274;17.974;2023-12-14T00:42:43;101142.19;;;-5.28;96.98
71476;BME280;59286;59.274;17.974;2023-12-14T00:45:09;101145.38;;;-5.26;96.83
71476;BME280;59286;59.274;17.974;2023-12-14T00:47:34;101129.06;;;-5.40;97.13
71476;BME280;59286;59.274;17.974;2023-12-14T00:50:00;101108.66;;;-5.54;95.81
71476;BME280;59286;59.274;17.974;2023-12-14T00:52:26;101113.84;;;-5.62;95.92
71476;BME280;59286;59.274;17.974;2023-12-14T00:54:51;101159.22;;;-5.35;95.50
71476;BME280;59286;59.274;17.974;2023-12-14T00:57:16;101147.66;;;-5.46;95.75
71476;BME280;59286;59.274;17.974;2023-12-14T00:59:42;101172.22;;;-5.30;95.86
71476;BME280;59286;59.274;17.974;2023-12-14T01:02:07;101174.53;;;-5.35;95.05
71476;BME280;59286;59.274;17.974;2023-12-14T01:04:32;101129.97;;;-5.62;95.53
71476;BME280;59286;59.274;17.974;2023-12-14T01:06:58;101096.41;;;-5.73;96.28
71476;BME280;59286;59.274;17.974;2023-12-14T01:09:23;101153.38;;;-5.44;96.05
71476;BME280;59286;59.274;17.974;2023-12-14T01:11:49;101116.59;;;-5.64;97.06
71476;BME280;59286;59.274;17.974;2023-12-14T01:14:14;101196.63;;;-5.13;96.26
71476;BME280;59286;59.274;17.974;2023-12-14T01:16:40;101182.63;;;-5.17;96.57
71476;BME280;59286;59.274;17.974;2023-12-14T01:19:05;101111.38;;;-5.70;95.52
71476;BME280;59286;59.274;17.974;2023-12-14T01:21:32;101119.03;;;-5.70;95.92
71476;BME280;59286;59.274;17.974;2023-12-14T01:23:57;101117.81;;;-5.60;96.23
71476;BME280;59286;59.274;17.974;2023-12-14T01:26:22;101099.97;;;-5.74;95.94
71476;BME280;59286;59.274;17.974;2023-12-14T01:28:50;101185.44;;;-5.27;95.89
71476;BME280;59286;59.274;17.974;2023-12-14T01:31:16;101165.00;;;-5.41;96.26
71476;BME280;59286;59.274;17.974;2023-12-14T01:33:41;101166.25;;;-5.37;96.12
71476;BME280;59286;59.274;17.974;2023-12-14T01:36:07;101173.53;;;-5.34;95.69
71476;BME280;59286;59.274;17.974;2023-12-14T01:38:32;101170.44;;;-5.44;95.87
71476;BME280;59286;59.274;17.974;2023-12-14T01:40:58;101118.16;;;-5.77;95.05
71476;BME280;59286;59.274;17.974;2023-12-14T01:43:24;101135.94;;;-5.69;96.12
71476;BME280;59286;59.274;17.974;2023-12-14T01:45:49;101194.53;;;-5.24;96.91
71476;BME280;59286;59.274;17.974;2023-12-14T01:48:15;101200.13;;;-5.14;96.34
71476;BME280;59286;59.274;17.974;2023-12-14T01:50:40;101146.41;;;-5.50;95.78
71476;BME280;59286;59.274;17.974;2023-12-14T01:53:06;101205.34;;;-5.22;95.91
71476;BME280;59286;59.274;17.974;2023-12-14T01:55:31;101172.13;;;-5.51;95.69
71476;BME280;59286;59.274;17.974;2023-12-14T01:57:57;101121.06;;;-5.80;95.42
71476;BME280;59286;59.274;17.974;2023-12-14T02:00:36;101149.69;;;-5.56;96.07
71476;BME280;59286;59.274;17.974;2023-12-14T02:03:04;101186.75;;;-5.31;95.59
71476;BME280;59286;59.274;17.974;2023-12-14T02:05:29;101127.84;;;-5.73;96.17
71476;BME280;59286;59.274;17.974;2023-12-14T02:07:55;101187.81;;;-5.40;95.78
71476;BME280;59286;59.274;17.974;2023-12-14T02:10:22;101137.63;;;-5.62;96.15
71476;BME280;59286;59.274;17.974;2023-12-14T02:12:47;101095.81;;;-5.75;95.68
71476;BME280;59286;59.274;17.974;2023-12-14T02:15:13;101154.50;;;-5.46;95.43
71476;BME280;59286;59.274;17.974;2023-12-14T02:17:38;101156.47;;;-5.48;95.09
71476;BME280;59286;59.274;17.974;2023-12-14T02:20:04;101154.25;;;-5.51;95.43
71476;BME280;59286;59.274;17.974;2023-12-14T02:22:35;101188.78;;;-5.41;96.16
71476;BME280;59286;59.274;17.974;2023-12-14T02:25:01;101096.09;;;-6.00;95.67
71476;BME280;59286;59.274;17.974;2023-12-14T02:27:29;101165.97;;;-5.57;95.70
71476;BME280;59286;59.274;17.974;2023-12-14T02:29:54;101114.50;;;-5.89;96.22
71476;BME280;59286;59.274;17.974;2023-12-14T02:32:20;101175.31;;;-5.49;96.43
71476;BME280;59286;59.274;17.974;2023-12-14T02:34:45;101125.81;;;-5.77;96.56
71476;BME280;59286;59.274;17.974;2023-12-14T02:37:10;101148.63;;;-5.61;96.06
71476;BME280;59286;59.274;17.974;2023-12-14T02:39:36;101167.91;;;-5.44;96.71
71476;BME280;59286;59.274;17.974;2023-12-14T02:42:12;101214.16;;;-5.25;96.64
71476;BME280;59286;59.274;17.974;2023-12-14T02:44:37;101168.94;;;-5.53;96.34
71476;BME280;59286;59.274;17.974;2023-12-14T02:47:03;101180.78;;;-5.52;96.59
71476;BME280;59286;59.274;17.974;2023-12-14T02:49:28;101149.41;;;-5.61;97.29
71476;BME280;59286;59.274;17.974;2023-12-14T02:51:54;101216.28;;;-5.28;96.21
71476;BME280;59286;59.274;17.974;2023-12-14T02:54:19;101198.47;;;-5.36;96.74
71476;BME280;59286;59.274;17.974;2023-12-14T02:56:47;101155.38;;;-5.68;96.85
71476;BME280;59286;59.274;17.974;2023-12-14T02:59:12;101149.41;;;-5.75;96.75
71476;BME280;59286;59.274;17.974;2023-12-14T03:01:40;101118.88;;;-5.98;97.02
71476;BME280;59286;59.274;17.974;2023-12-14T03:04:06;101183.50;;;-5.54;97.60
71476;BME280;59286;59.274;17.974;2023-12-14T03:06:32;101168.78;;;-5.52;97.56
71476;BME280;59286;59.274;17.974;2023-12-14T03:08:57;101154.19;;;-5.58;97.52
71476;BME280;59286;59.274;17.974;2023-12-14T03:11:23;101148.44;;;-5.60;97.75
71476;BME280;59286;59.274;17.974;2023-12-14T03:13:51;101108.06;;;-5.85;97.50
71476;BME280;59286;59.274;17.974;2023-12-14T03:16:18;101204.13;;;-5.26;98.46
71476;BME280;59286;59.274;17.974;2023-12-14T03:18:43;101202.69;;;-5.29;98.85
71476;BME280;59286;59.274;17.974;2023-12-14T03:21:10;101196.44;;;-5.26;98.19
71476;BME280;59286;59.274;17.974;2023-12-14T03:23:36;101165.34;;;-5.44;98.15
71476;BME280;59286;59.274;17.974;2023-12-14T03:26:02;101141.56;;;-5.59;98.48
71476;BME280;59286;59.274;17.974;2023-12-14T03:28:27;101188.50;;;-5.31;98.18
71476;BME280;59286;59.274;17.974;2023-12-14T03:30:53;101159.78;;;-5.33;99.55
71476;BME280;59286;59.274;17.974;2023-12-14T03:33:18;101123.25;;;-5.63;98.95
71476;BME280;59286;59.274;17.974;2023-12-14T03:35:44;101136.75;;;-5.54;98.15
71476;BME280;59286;59.274;17.974;2023-12-14T03:38:13;101176.78;;;-5.40;98.57
71476;BME280;59286;59.274;17.974;2023-12-14T03:40:38;101196.34;;;-5.18;98.91
71476;BME280;59286;59.274;17.974;2023-12-14T03:43:04;101177.56;;;-5.11;98.27
71476;BME280;59286;59.274;17.974;2023-12-14T03:45:29;101145.63;;;-5.36;98.22
71476;BME280;59286;59.274;17.974;2023-12-14T03:47:55;101141.41;;;-5.43;98.81
71476;BME280;59286;59.274;17.974;2023-12-14T03:50:20;101119.69;;;-5.54;98.58
71476;BME280;59286;59.274;17.974;2023-12-14T03:52:45;101161.56;;;-5.34;98.30
71476;BME280;59286;59.274;17.974;2023-12-14T03:55:12;101212.19;;;-4.94;98.89
71476;BME280;59286;59.274;17.974;2023-12-14T03:57:37;101169.75;;;-5.24;98.83
71476;BME280;59286;59.274;17.974;2023-12-14T04:00:03;101141.59;;;-5.30;98.17
71476;BME280;59286;59.274;17.974;2023-12-14T04:02:28;101170.47;;;-5.15;98.25
71476;BME280;59286;59.274;17.974;2023-12-14T04:04:54;101163.66;;;-5.08;98.53
71476;BME280;59286;59.274;17.974;2023-12-14T04:07:19;101169.91;;;-5.11;98.11
71476;BME280;59286;59.274;17.974;2023-12-14T04:09:45;101190.09;;;-5.01;97.53
71476;BME280;59286;59.274;17.974;2023-12-14T04:12:11;101154.41;;;-5.24;98.29
71476;BME280;59286;59.274;17.974;2023-12-14T04:14:36;101144.56;;;-5.27;98.76
71476;BME280;59286;59.274;17.974;2023-12-14T04:17:02;101154.50;;;-5.17;97.62
71476;BME280;59286;59.274;17.974;2023-12-14T04:19:27;101158.13;;;-5.12;98.32
71476;BME280;59286;59.274;17.974;2023-12-14T04:21:53;101159.34;;;-5.08;98.96
71476;BME280;59286;59.274;17.974;2023-12-14T04:24:18;101117.59;;;-5.29;98.03
71476;BME280;59286;59.274;17.974;2023-12-14T04:26:44;101141.94;;;-5.19;98.12
71476;BME280;59286;59.274;17.974;2023-12-14T04:29:10;101133.09;;;-5.16;97.63
71476;BME280;59286;59.274;17.974;2023-12-14T04:31:35;101105.47;;;-5.42;98.21
71476;BME280;59286;59.274;17.974;2023-12-14T04:34:00;101151.25;;;-5.11;98.30
71476;BME280;59286;59.274;17.974;2023-12-14T04:36:26;101181.63;;;-4.87;97.08
71476;BME280;59286;59.274;17.974;2023-12-14T04:38:51;101173.94;;;-5.02;97.80
71476;BME280;59286;59.274;17.974;2023-12-14T04:41:17;101185.16;;;-5.03;97.84
71476;BME280;59286;59.274;17.974;2023-12-14T04:43:42;101195.53;;;-4.89;98.16
71476;BME280;59286;59.274;17.974;2023-12-14T04:46:07;101152.75;;;-5.31;97.22
71476;BME280;59286;59.274;17.974;2023-12-14T04:48:33;101172.13;;;-5.08;98.61
71476;BME280;59286;59.274;17.974;2023-12-14T04:50:58;101158.56;;;-5.08;99.01
71476;BME280;59286;59.274;17.974;2023-12-14T04:53:24;101165.31;;;-5.01;97.29
71476;BME280;59286;59.274;17.974;2023-12-14T04:55:49;101152.84;;;-5.25;97.20
71476;BME280;59286;59.274;17.974;2023-12-14T04:58:14;101133.22;;;-5.24;97.98
71476;BME280;59286;59.274;17.974;2023-12-14T05:00:42;101146.75;;;-5.09;98.29
71476;BME280;59286;59.274;17.974;2023-12-14T05:03:07;101133.72;;;-5.14;97.54
71476;BME280;59286;59.274;17.974;2023-12-14T05:05:33;101143.75;;;-4.98;97.41
71476;BME280;59286;59.274;17.974;2023-12-14T05:07:58;101192.34;;;-4.77;96.99
71476;BME280;59286;59.274;17.974;2023-12-14T05:10:24;101119.38;;;-5.30;97.55
71476;BME280;59286;59.274;17.974;2023-12-14T05:12:49;101209.97;;;-4.82;97.91
71476;BME280;59286;59.274;17.974;2023-12-14T05:15:14;101121.94;;;-5.44;98.53
71476;BME280;59286;59.274;17.974;2023-12-14T05:17:40;101183.91;;;-4.92;98.04
71476;BME280;59286;59.274;17.974;2023-12-14T05:20:08;101207.06;;;-4.79;98.24
71476;BME280;59286;59.274;17.974;2023-12-14T05:22:33;101190.38;;;-4.75;98.25
71476;BME280;59286;59.274;17.974;2023-12-14T05:24:59;101223.25;;;-4.57;96.81
71476;BME280;59286;59.274;17.974;2023-12-14T05:27:25;101159.00;;;-5.19;97.12
71476;BME280;59286;59.274;17.974;2023-12-14T05:29:50;101235.09;;;-4.85;97.57
71476;BME280;59286;59.274;17.974;2023-12-14T05:32:16;101236.88;;;-4.86;97.39
71476;BME280;59286;59.274;17.974;2023-12-14T05:34:41;101176.47;;;-5.37;97.69
71476;BME280;59286;59.274;17.974;2023-12-14T05:37:06;101229.41;;;-5.02;98.32
71476;BME280;59286;59.274;17.974;2023-12-14T05:39:32;101223.84;;;-5.06;98.30
71476;BME280;59286;59.274;17.974;2023-12-14T05:41:58;101180.22;;;-5.33;98.92
71476;BME280;59286;59.274;17.974;2023-12-14T05:44:24;101213.28;;;-5.17;98.55
71476;BME280;59286;59.274;17.974;2023-12-14T05:46:50;101175.22;;;-5.41;98.60
71476;BME280;59286;59.274;17.974;2023-12-14T05:49:15;101162.97;;;-5.46;98.22
71476;BME280;59286;59.274;17.974;2023-12-14T05:51:41;101238.28;;;-4.98;98.54
71476;BME280;59286;59.274;17.974;2023-12-14T05:54:06;101173.72;;;-5.36;98.24
71476;BME280;59286;59.274;17.974;2023-12-14T05:56:32;101207.91;;;-5.22;98.27
71476;BME280;59286;59.274;17.974;2023-12-14T05:59:01;101190.88;;;-5.44;98.87
71476;BME280;59286;59.274;17.974;2023-12-14T06:01:29;101237.31;;;-5.26;99.19
71476;BME280;59286;59.274;17.974;2023-12-14T06:03:54;101197.66;;;-5.51;99.51
71476;BME280;59286;59.274;17.974;2023-12-14T06:06:20;101219.78;;;-5.29;99.71
71476;BME280;59286;59.274;17.974;2023-12-14T06:08:45;101257.16;;;-5.14;99.74
71476;BME280;59286;59.274;17.974;2023-12-14T06:11:10;101186.56;;;-5.58;99.75
71476;BME280;59286;59.274;17.974;2023-12-14T06:13:36;101209.47;;;-5.36;99.81
71476;BME280;59286;59.274;17.974;2023-12-14T06:16:05;101267.09;;;-5.04;100.00
71476;BME280;59286;59.274;17.974;2023-12-14T06:18:32;101201.56;;;-5.26;99.99
71476;BME280;59286;59.274;17.974;2023-12-14T06:20:57;101222.25;;;-5.07;99.88
71476;BME280;59286;59.274;17.974;2023-12-14T06:23:22;101228.53;;;-5.09;99.41
71476;BME280;59286;59.274;17.974;2023-12-14T06:25:48;101223.13;;;-5.29;99.96
71476;BME280;59286;59.274;17.974;2023-12-14T06:28:13;101200.22;;;-5.51;100.00
71476;BME280;59286;59.274;17.974;2023-12-14T06:30:38;101223.50;;;-5.32;100.00
71476;BME280;59286;59.274;17.974;2023-12-14T06:33:05;101245.16;;;-5.13;100.00
71476;BME280;59286;59.274;17.974;2023-12-14T06:35:30;101236.34;;;-5.25;99.67
71476;BME280;59286;59.274;17.974;2023-12-14T06:37:56;101227.81;;;-5.32;99.73
71476;BME280;59286;59.274;17.974;2023-12-14T06:40:21;101241.44;;;-5.25;100.00
71476;BME280;59286;59.274;17.974;2023-12-14T06:42:46;101282.38;;;-4.96;100.00
71476;BME280;59286;59.274;17.974;2023-12-14T06:45:12;101255.72;;;-5.16;100.00
71476;BME280;59286;59.274;17.974;2023-12-14T06:47:38;101241.13;;;-5.22;100.00
71476;BME280;59286;59.274;17.974;2023-12-14T06:50:03;101287.38;;;-4.88;100.00
71476;BME280;59286;59.274;17.974;2023-12-14T06:52:29;101230.72;;;-5.21;100.00
71476;BME280;59286;59.274;17.974;2023-12-14T06:58:02;101245.75;;;-5.26;100.00
71476;BME280;59286;59.274;17.974;2023-12-14T07:00:28;101197.66;;;-5.51;100.00
71476;BME280;59286;59.274;17.974;2023-12-14T07:02:54;101204.56;;;-5.37;100.00
71476;BME280;59286;59.274;17.974;2023-12-14T07:05:20;101204.13;;;-5.26;100.00
71476;BME280;59286;59.274;17.974;2023-12-14T07:07:45;101227.53;;;-5.23;100.00
71476;BME280;59286;59.274;17.974;2023-12-14T07:10:11;101292.16;;;-4.85;100.00
71476;BME280;59286;59.274;17.974;2023-12-14T07:12:36;101212.91;;;-5.29;100.00
71476;BME280;59286;59.274;17.974;2023-12-14T07:15:02;101192.41;;;-5.35;100.00
71476;BME280;59286;59.274;17.974;2023-12-14T07:17:27;101294.59;;;-4.77;100.00
71476;BME280;59286;59.274;17.974;2023-12-14T07:19:53;101221.81;;;-5.25;100.00
71476;BME280;59286;59.274;17.974;2023-12-14T07:22:19;101241.81;;;-5.14;100.00
71476;BME280;59286;59.274;17.974;2023-12-14T07:24:44;101272.28;;;-4.98;100.00
71476;BME280;59286;59.274;17.974;2023-12-14T07:27:09;101202.63;;;-5.35;100.00
71476;BME280;59286;59.274;17.974;2023-12-14T07:29:35;101258.19;;;-4.94;100.00
71476;BME280;59286;59.274;17.974;2023-12-14T07:32:00;101224.63;;;-5.20;100.00
71476;BME280;59286;59.274;17.974;2023-12-14T07:34:26;101248.69;;;-5.14;100.00
71476;BME280;59286;59.274;17.974;2023-12-14T07:36:53;101308.06;;;-4.98;100.00
71476;BME280;59286;59.274;17.974;2023-12-14T07:39:19;101258.44;;;-5.32;100.00
71476;BME280;59286;59.274;17.974;2023-12-14T07:41:44;101287.88;;;-5.22;100.00
71476;BME280;59286;59.274;17.974;2023-12-14T07:44:09;101267.53;;;-5.30;100.00
71476;BME280;59286;59.274;17.974;2023-12-14T07:46:35;101244.59;;;-5.52;100.00
71476;BME280;59286;59.274;17.974;2023-12-14T07:49:07;101249.97;;;-5.47;100.00
71476;BME280;59286;59.274;17.974;2023-12-14T07:51:33;101245.22;;;-5.50;100.00
71476;BME280;59286;59.274;17.974;2023-12-14T07:53:58;101254.03;;;-5.38;100.00
71476;BME280;59286;59.274;17.974;2023-12-14T07:56:24;101275.53;;;-5.18;100.00
71476;BME280;59286;59.274;17.974;2023-12-14T07:58:52;101260.38;;;-5.34;100.00
71476;BME280;59286;59.274;17.974;2023-12-14T08:01:18;101296.16;;;-5.05;100.00
71476;BME280;59286;59.274;17.974;2023-12-14T08:03:43;101286.75;;;-5.19;100.00
71476;BME280;59286;59.274;17.974;2023-12-14T08:06:11;101256.94;;;-5.41;100.00
71476;BME280;59286;59.274;17.974;2023-12-14T08:08:36;101282.59;;;-5.20;100.00
71476;BME280;59286;59.274;17.974;2023-12-14T08:11:03;101316.34;;;-4.96;100.00
71476;BME280;59286;59.274;17.974;2023-12-14T08:13:29;101295.84;;;-5.02;100.00
71476;BME280;59286;59.274;17.974;2023-12-14T08:15:55;101293.72;;;-5.13;100.00
71476;BME280;59286;59.274;17.974;2023-12-14T08:18:20;101258.50;;;-5.40;100.00
71476;BME280;59286;59.274;17.974;2023-12-14T08:20:46;101315.41;;;-5.09;100.00
71476;BME280;59286;59.274;17.974;2023-12-14T08:23:11;101277.75;;;-5.30;100.00
71476;BME280;59286;59.274;17.974;2023-12-14T08:25:36;101307.19;;;-5.19;100.00
71476;BME280;59286;59.274;17.974;2023-12-14T08:28:02;101287.09;;;-5.22;100.00
71476;BME280;59286;59.274;17.974;2023-12-14T08:30:27;101266.19;;;-5.40;100.00
71476;BME280;59286;59.274;17.974;2023-12-14T08:32:53;101255.97;;;-5.40;100.00
71476;BME280;59286;59.274;17.974;2023-12-14T08:35:18;101261.88;;;-5.40;100.00
71476;BME280;59286;59.274;17.974;2023-12-14T08:37:44;101290.78;;;-5.25;100.00
71476;BME280;59286;59.274;17.974;2023-12-14T08:40:09;101300.41;;;-5.12;100.00
71476;BME280;59286;59.274;17.974;2023-12-14T08:42:35;101318.09;;;-5.11;100.00
71476;BME280;59286;59.274;17.974;2023-12-14T08:45:00;101309.72;;;-5.19;100.00
71476;BME280;59286;59.274;17.974;2023-12-14T08:47:26;101343.59;;;-4.88;100.00
71476;BME280;59286;59.274;17.974;2023-12-14T08:49:51;101280.00;;;-5.35;100.00
71476;BME280;59286;59.274;17.974;2023-12-14T08:52:18;101304.97;;;-5.22;100.00
71476;BME280;59286;59.274;17.974;2023-12-14T08:54:43;101303.38;;;-5.23;100.00
71476;BME280;59286;59.274;17.974;2023-12-14T08:57:11;101339.97;;;-4.94;100.00
71476;BME280;59286;59.274;17.974;2023-12-14T08:59:37;101322.28;;;-4.95;100.00
71476;BME280;59286;59.274;17.974;2023-12-14T09:02:03;101304.56;;;-5.11;100.00
71476;BME280;59286;59.274;17.974;2023-12-14T09:04:28;101267.59;;;-5.38;100.00
71476;BME280;59286;59.274;17.974;2023-12-14T09:06:53;101288.47;;;-5.34;100.00
71476;BME280;59286;59.274;17.974;2023-12-14T09:09:19;101309.38;;;-5.16;100.00
71476;BME280;59286;59.274;17.974;2023-12-14T09:11:44;101289.53;;;-5.29;100.00
71476;BME280;59286;59.274;17.974;2023-12-14T09:14:10;101265.50;;;-5.34;100.00
71476;BME280;59286;59.274;17.974;2023-12-14T09:16:35;101297.31;;;-5.22;100.00
71476;BME280;59286;59.274;17.974;2023-12-14T09:19:01;101286.38;;;-5.31;100.00
71476;BME280;59286;59.274;17.974;2023-12-14T09:21:26;101334.97;;;-4.87;100.00
71476;BME280;59286;59.274;17.974;2023-12-14T09:23:52;101341.16;;;-4.81;100.00
71476;BME280;59286;59.274;17.974;2023-12-14T09:26:18;101285.06;;;-5.12;100.00
71476;BME280;59286;59.274;17.974;2023-12-14T09:28:44;101293.72;;;-5.13;100.00
71476;BME280;59286;59.274;17.974;2023-12-14T09:31:09;101334.09;;;-4.79;100.00
71476;BME280;59286;59.274;17.974;2023-12-14T09:33:35;101316.34;;;-4.81;100.00
71476;BME280;59286;59.274;17.974;2023-12-14T09:36:00;101315.66;;;-4.89;100.00
71476;BME280;59286;59.274;17.974;2023-12-14T09:38:26;101350.06;;;-4.77;100.00
71476;BME280;59286;59.274;17.974;2023-12-14T09:40:51;101371.13;;;-4.61;100.00
71476;BME280;59286;59.274;17.974;2023-12-14T09:43:17;101327.91;;;-5.00;100.00
71476;BME280;59286;59.274;17.974;2023-12-14T09:45:42;101323.16;;;-5.03;100.00
71476;BME280;59286;59.274;17.974;2023-12-14T09:48:10;101318.91;;;-5.10;100.00
71476;BME280;59286;59.274;17.974;2023-12-14T09:50:38;101319.53;;;-4.94;100.00
71476;BME280;59286;59.274;17.974;2023-12-14T09:53:04;101313.03;;;-4.96;100.00
71476;BME280;59286;59.274;17.974;2023-12-14T09:55:29;101345.09;;;-4.94;100.00
71476;BME280;59286;59.274;17.974;2023-12-14T09:57:56;101324.56;;;-5.00;100.00
71476;BME280;59286;59.274;17.974;2023-12-14T10:00:51;101339.09;;;-4.86;100.00
71476;BME280;59286;59.274;17.974;2023-12-14T10:03:27;101332.91;;;-5.06;100.00
71476;BME280;59286;59.274;17.974;2023-12-14T10:05:57;101319.16;;;-5.05;100.00
71476;BME280;59286;59.274;17.974;2023-12-14T10:08:24;101361.78;;;-4.83;100.00
71476;BME280;59286;59.274;17.974;2023-12-14T10:10:52;101356.38;;;-5.03;100.00
71476;BME280;59286;59.274;17.974;2023-12-14T10:13:22;101265.22;;;-5.54;100.00
71476;BME280;59286;59.274;17.974;2023-12-14T10:16:00;101309.72;;;-5.19;100.00
71476;BME280;59286;59.274;17.974;2023-12-14T10:18:25;101325.69;;;-5.17;100.00
71476;BME280;59286;59.274;17.974;2023-12-14T10:20:51;101348.00;;;-4.97;100.00
71476;BME280;59286;59.274;17.974;2023-12-14T10:23:17;101349.06;;;-4.91;100.00
71476;BME280;59286;59.274;17.974;2023-12-14T10:25:43;101340.66;;;-5.00;100.00
71476;BME280;59286;59.274;17.974;2023-12-14T10:28:13;101367.59;;;-4.89;100.00
71476;BME280;59286;59.274;17.974;2023-12-14T10:30:39;101371.56;;;-4.72;100.00
71476;BME280;59286;59.274;17.974;2023-12-14T10:33:04;101314.16;;;-5.13;100.00
71476;BME280;59286;59.274;17.974;2023-12-14T10:35:30;101339.34;;;-5.10;100.00
71476;BME280;59286;59.274;17.974;2023-12-14T10:37:58;101309.88;;;-5.35;100.00
71476;BME280;59286;59.274;17.974;2023-12-14T10:40:28;101334.59;;;-5.13;100.00
71476;BME280;59286;59.274;17.974;2023-12-14T10:42:55;101312.78;;;-5.38;100.00
71476;BME280;59286;59.274;17.974;2023-12-14T10:45:26;101341.88;;;-5.25;100.00
71476;BME280;59286;59.274;17.974;2023-12-14T10:47:54;101317.06;;;-5.39;100.00
71476;BME280;59286;59.274;17.974;2023-12-14T10:50:20;101375.31;;;-4.97;100.00
71476;BME280;59286;59.274;17.974;2023-12-14T10:52:47;101324.81;;;-5.10;100.00
71476;BME280;59286;59.274;17.974;2023-12-14T10:55:22;101348.97;;;-4.98;100.00
71476;BME280;59286;59.274;17.974;2023-12-14T10:57:48;101379.06;;;-4.85;100.00
71476;BME280;59286;59.274;17.974;2023-12-14T11:00:15;101375.63;;;-4.77;99.68
71476;BME280;59286;59.274;17.974;2023-12-14T11:02:45;101325.13;;;-5.27;98.83
71476;BME280;59286;59.274;17.974;2023-12-14T11:05:12;101343.22;;;-5.14;99.97
71476;BME280;59286;59.274;17.974;2023-12-14T11:07:59;101340.94;;;-5.09;100.00
71476;BME280;59286;59.274;17.974;2023-12-14T11:10:37;101335.84;;;-5.09;99.33
71476;BME280;59286;59.274;17.974;2023-12-14T11:13:06;101389.09;;;-4.83;98.79
71476;BME280;59286;59.274;17.974;2023-12-14T11:15:36;101305.03;;;-5.45;99.63
71476;BME280;59286;59.274;17.974;2023-12-14T11:20:47;101300.56;;;-5.28;100.00
71476;BME280;59286;59.274;17.974;2023-12-14T11:23:13;101327.28;;;-5.02;99.14
71476;BME280;59286;59.274;17.974;2023-12-14T11:25:43;101315.72;;;-5.12;99.72
71476;BME280;59286;59.274;17.974;2023-12-14T11:28:10;101328.44;;;-5.04;100.00
71476;BME280;59286;59.274;17.974;2023-12-14T11:30:36;101294.75;;;-5.22;100.00
71476;BME280;59286;59.274;17.974;2023-12-14T11:33:02;101329.94;;;-4.95;100.00
71476;BME280;59286;59.274;17.974;2023-12-14T11:35:28;101339.09;;;-4.86;99.70
71476;BME280;59286;59.274;17.974;2023-12-14T11:37:53;101307.81;;;-5.17;100.00
71476;BME280;59286;59.274;17.974;2023-12-14T11:40:21;101352.31;;;-4.97;100.00
71476;BME280;59286;59.274;17.974;2023-12-14T11:43:00;101347.19;;;-4.97;100.00
71476;BME280;59286;59.274;17.974;2023-12-14T11:45:27;101320.56;;;-5.17;99.91
71476;BME280;59286;59.274;17.974;2023-12-14T11:47:53;101303.09;;;-5.43;100.00
71476;BME280;59286;59.274;17.974;2023-12-14T11:50:19;101321.31;;;-5.31;100.00
71476;BME280;59286;59.274;17.974;2023-12-14T11:52:44;101302.81;;;-5.33;100.00
71476;BME280;59286;59.274;17.974;2023-12-14T11:55:10;101347.91;;;-4.88;100.00
71476;BME280;59286;59.274;17.974;2023-12-14T11:57:36;101293.28;;;-5.17;100.00
71476;BME280;59286;59.274;17.974;2023-12-14T12:00:01;101343.34;;;-4.78;100.00
71476;BME280;59286;59.274;17.974;2023-12-14T12:02:28;101359.47;;;-4.93;100.00
71476;BME280;59286;59.274;17.974;2023-12-14T12:04:54;101337.50;;;-5.02;100.00
71476;BME280;59286;59.274;17.974;2023-12-14T12:07:19;101360.53;;;-4.87;100.00
71476;BME280;59286;59.274;17.974;2023-12-14T12:09:44;101369.25;;;-4.96;100.00
71476;BME280;59286;59.274;17.974;2023-12-14T12:12:13;101363.16;;;-4.95;100.00
71476;BME280;59286;59.274;17.974;2023-12-14T12:14:40;101343.53;;;-4.95;100.00
71476;BME280;59286;59.274;17.974;2023-12-14T12:17:06;101376.50;;;-4.70;100.00
71476;BME280;59286;59.274;17.974;2023-12-14T12:19:33;101329.38;;;-5.20;99.64
71476;BME280;59286;59.274;17.974;2023-12-14T12:21:59;101320.19;;;-5.29;100.00
71476;BME280;59286;59.274;17.974;2023-12-14T12:24:25;101330.53;;;-5.22;100.00
71476;BME280;59286;59.274;17.974;2023-12-14T12:26:50;101369.75;;;-5.15;100.00
71476;BME280;59286;59.274;17.974;2023-12-14T12:29:16;101368.75;;;-5.14;100.00
71476;BME280;59286;59.274;17.974;2023-12-14T12:31:41;101401.44;;;-4.87;100.00
71476;BME280;59286;59.274;17.974;2023-12-14T12:34:08;101330.66;;;-5.38;100.00
71476;BME280;59286;59.274;17.974;2023-12-14T12:36:33;101374.22;;;-5.17;100.00